Time;durP1;ratioP1;P1;durP2;ratioP2;P2;SDS_P1;SDS_P2;PMS_P1;PMS_P2;Temp;Humidity;BMP_temperature;BMP_pressure;BME280_temperature;BME280_humidity;BME280_pressure;Samples;Min_cycle;Max_cycle;Signal;HPM_P1;HPM_P2
2022/06/23 00:02:12;;;;;;;11.73;3.80;;;;;;;15.83;94.09;93657.44;5016189;28;20044;-58
2022/06/23 00:04:42;;;;;;;11.52;4.07;;;;;;;15.81;93.71;93661.91;5020209;28;20110;-58
2022/06/23 00:07:20;;;;;;;11.68;3.80;;;;;;;15.69;93.00;93674.59;5019475;28;20038;-58
2022/06/23 00:09:50;;;;;;;11.97;3.67;;;;;;;15.62;92.79;93685.94;5037292;28;20630;-58
2022/06/23 00:12:19;;;;;;;10.93;3.70;;;;;;;15.57;92.74;93687.28;5042705;28;20041;-58
2022/06/23 00:15:13;;;;;;;8.55;3.47;;;;;;;15.54;92.44;93682.66;5050379;28;20125;-59
2022/06/23 00:17:42;;;;;;;12.90;3.92;;;;;;;15.53;93.19;93681.13;5029224;28;20078;-59
2022/06/23 00:20:18;;;;;;;13.48;4.03;;;;;;;15.55;93.74;93681.44;5018973;28;20186;-58
2022/06/23 00:22:51;;;;;;;13.30;4.10;;;;;;;15.47;94.06;93672.63;5023628;28;20100;-58
2022/06/23 00:25:42;;;;;;;12.50;5.13;;;;;;;15.47;94.23;93672.63;5029877;28;20045;-58
2022/06/23 00:28:35;;;;;;;18.25;7.35;;;;;;;15.46;94.48;93673.88;5030311;28;20049;-58
2022/06/23 00:31:06;;;;;;;17.25;8.73;;;;;;;15.44;94.92;93676.31;5029826;28;20841;-58
2022/06/23 00:33:39;;;;;;;15.93;6.85;;;;;;;15.49;94.96;93678.50;5020009;28;20046;-59
2022/06/23 00:36:27;;;;;;;15.30;5.53;;;;;;;15.57;94.98;93687.28;5026497;28;20050;-58
2022/06/23 00:38:55;;;;;;;13.98;5.20;;;;;;;15.61;94.83;93698.22;5022400;28;20072;-59
2022/06/23 00:41:29;;;;;;;12.10;4.80;;;;;;;15.37;95.77;93690.41;5030013;28;20048;-59
2022/06/23 00:44:03;;;;;;;12.57;4.82;;;;;;;15.44;95.68;93689.38;5005036;28;20045;-59
2022/06/23 00:46:41;;;;;;;17.05;5.43;;;;;;;15.52;95.63;93683.13;5010156;28;20052;-58
2022/06/23 00:49:37;;;;;;;15.10;5.03;;;;;;;15.53;95.31;93689.41;5029301;28;20049;-60
2022/06/23 00:52:20;;;;;;;18.83;7.95;;;;;;;15.51;95.34;93680.78;4996541;28;20465;-59
2022/06/23 00:54:54;;;;;;;28.15;16.95;;;;;;;15.49;95.18;93692.34;5049248;28;21143;-60
2022/06/23 00:57:46;;;;;;;18.80;9.27;;;;;;;15.48;95.12;93696.31;5048311;28;20071;-60
2022/06/23 01:00:29;;;;;;;15.52;6.15;;;;;;;15.44;95.79;93683.84;5046669;28;20524;-58
2022/06/23 01:03:05;;;;;;;15.17;5.50;;;;;;;15.46;95.27;93678.63;5005161;28;20049;-57
2022/06/23 01:05:39;;;;;;;14.05;5.57;;;;;;;15.41;95.46;93674.44;5024489;28;20049;-58
2022/06/23 01:08:21;;;;;;;13.20;5.60;;;;;;;15.32;95.60;93677.94;5044651;28;20059;-57
2022/06/23 01:11:00;;;;;;;12.65;5.10;;;;;;;15.20;96.00;93686.31;5023529;28;21538;-58
2022/06/23 01:13:34;;;;;;;11.13;5.15;;;;;;;15.22;95.80;93686.63;5027993;28;20041;-60
2022/06/23 01:16:18;;;;;;;14.17;5.20;;;;;;;15.25;96.35;93688.47;5028524;28;20049;-59
2022/06/23 01:18:58;;;;;;;15.40;6.10;;;;;;;15.29;96.54;93684.38;5038201;28;20733;-60
2022/06/23 01:21:40;;;;;;;13.13;5.68;;;;;;;15.36;96.83;93683.34;5032864;28;20049;-59
2022/06/23 01:24:16;;;;;;;13.02;5.60;;;;;;;15.40;96.64;93691.50;5049713;28;20055;-59
2022/06/23 01:27:16;;;;;;;14.43;6.78;;;;;;;15.36;96.09;93691.63;5048435;28;21732;-59
2022/06/23 01:30:06;;;;;;;22.73;8.40;;;;;;;15.36;96.69;93686.88;5029061;28;20303;-59
2022/06/23 01:32:46;;;;;;;26.15;7.43;;;;;;;15.41;96.49;93696.56;5029044;28;20494;-59
2022/06/23 01:35:22;;;;;;;23.63;7.63;;;;;;;15.41;96.62;93691.03;5013386;28;20042;-59
2022/06/23 01:37:57;;;;;;;21.35;8.20;;;;;;;15.42;96.40;93700.88;5043408;28;20055;-59
2022/06/23 01:40:30;;;;;;;40.22;8.60;;;;;;;15.46;96.93;93700.75;5049187;28;20040;-60
2022/06/23 01:43:06;;;;;;;26.30;8.50;;;;;;;15.51;96.94;93691.84;5049676;28;20048;-60
2022/06/23 01:45:43;;;;;;;20.23;7.47;;;;;;;15.55;96.80;93695.25;5034758;28;20040;-59
2022/06/23 01:48:16;;;;;;;18.17;7.75;;;;;;;15.55;96.46;93696.06;5049156;28;20044;-60
2022/06/23 01:50:50;;;;;;;20.35;8.18;;;;;;;15.53;96.49;93694.94;5028403;28;20778;-59
2022/06/23 01:53:17;;;;;;;16.95;6.47;;;;;;;15.54;96.29;93708.31;5029017;28;20061;-60
2022/06/23 01:55:52;;;;;;;15.77;6.63;;;;;;;15.44;96.24;93703.97;5028013;28;20049;-60
2022/06/23 01:58:22;;;;;;;15.65;6.70;;;;;;;15.40;96.44;93706.09;5028717;28;20061;-59
2022/06/23 02:00:53;;;;;;;22.15;11.98;;;;;;;15.38;96.38;93706.53;5020904;28;20103;-60
2022/06/23 02:03:27;;;;;;;20.02;10.02;;;;;;;15.34;96.42;93710.66;4993475;28;20419;-59
2022/06/23 02:06:21;;;;;;;13.68;6.50;;;;;;;15.23;97.30;93713.84;5021245;28;20046;-59
2022/06/23 02:09:16;;;;;;;15.90;6.30;;;;;;;15.26;97.27;93710.16;5014440;28;21673;-59
2022/06/23 02:11:48;;;;;;;13.25;6.15;;;;;;;15.21;96.94;93705.19;5026667;28;21713;-59
2022/06/23 02:14:39;;;;;;;14.77;5.97;;;;;;;15.22;96.93;93712.28;5028523;28;20057;-60
2022/06/23 02:17:25;;;;;;;12.80;5.43;;;;;;;15.14;97.46;93711.75;5029105;28;20049;-60
2022/06/23 02:19:55;;;;;;;12.40;5.50;;;;;;;15.13;97.51;93721.28;5017039;28;20048;-59
2022/06/23 02:22:43;;;;;;;13.43;5.97;;;;;;;15.16;97.20;93712.09;5024103;28;20489;-60
2022/06/23 02:25:20;;;;;;;11.23;5.20;;;;;;;15.19;97.00;93710.41;5031801;28;20118;-59
2022/06/23 02:27:52;;;;;;;10.35;5.43;;;;;;;15.16;97.08;93711.31;5032080;28;20149;-59
2022/06/23 02:30:33;;;;;;;12.73;5.80;;;;;;;15.18;97.15;93719.94;5032516;28;20059;-60
2022/06/23 02:33:23;;;;;;;16.30;8.95;;;;;;;15.21;97.33;93721.78;5029172;28;20045;-60
2022/06/23 02:36:16;;;;;;;13.70;6.03;;;;;;;15.21;97.19;93709.97;5025869;28;20049;-59
2022/06/23 02:38:50;;;;;;;11.40;5.55;;;;;;;15.22;97.41;93712.28;5017363;28;20345;-59
2022/06/23 02:41:19;;;;;;;10.32;5.25;;;;;;;15.18;97.38;93717.94;5028563;28;20059;-59
2022/06/23 02:44:04;;;;;;;11.23;5.65;;;;;;;15.11;97.49;93715.44;5032636;28;20064;-60
2022/06/23 02:47:05;;;;;;;11.32;5.57;;;;;;;15.20;97.46;93716.72;5031952;28;20053;-59
2022/06/23 02:49:53;;;;;;;11.33;5.20;;;;;;;15.24;97.21;93720.13;5030823;28;20046;-59
2022/06/23 02:52:26;;;;;;;9.55;5.10;;;;;;;15.27;96.41;93722.78;5031948;28;20041;-60
2022/06/23 02:55:04;;;;;;;10.98;5.80;;;;;;;15.27;96.47;93716.44;5032385;28;20494;-60
2022/06/23 02:58:13;;;;;;;10.88;5.40;;;;;;;15.31;96.09;93722.63;5031839;28;20041;-59
2022/06/23 03:00:48;;;;;;;9.98;5.07;;;;;;;15.33;95.75;93711.88;4990979;28;20041;-60
2022/06/23 03:03:40;;;;;;;12.83;5.13;;;;;;;15.33;95.45;93707.16;5012674;28;20046;-59
2022/06/23 03:06:24;;;;;;;11.00;5.25;;;;;;;15.25;95.47;93713.38;5023827;28;20042;-60
2022/06/23 03:08:59;;;;;;;8.65;4.82;;;;;;;15.14;95.97;93706.22;5028618;28;20045;-59
2022/06/23 03:11:54;;;;;;;9.25;5.05;;;;;;;15.06;96.51;93721.53;5020048;28;20099;-59
2022/06/23 03:14:23;;;;;;;8.55;5.28;;;;;;;15.10;96.98;93718.66;5029699;28;20045;-60
2022/06/23 03:16:57;;;;;;;10.27;5.40;;;;;;;15.14;96.64;93727.59;5031699;28;20425;-59
2022/06/23 03:19:34;;;;;;;8.80;5.07;;;;;;;15.18;96.70;93717.16;5025375;28;20049;-60
2022/06/23 03:22:34;;;;;;;10.77;5.47;;;;;;;15.19;96.35;93715.94;5031712;28;20045;-60
2022/06/23 03:25:00;;;;;;;9.55;4.85;;;;;;;15.21;95.86;93723.78;5050372;28;20110;-60
2022/06/23 03:27:37;;;;;;;9.90;5.00;;;;;;;15.23;95.86;93726.88;5051110;28;20045;-60
2022/06/23 03:30:20;;;;;;;9.07;4.63;;;;;;;15.26;95.70;93720.44;5051626;28;20037;-60
2022/06/23 03:32:55;;;;;;;10.27;5.45;;;;;;;15.26;95.77;93721.22;5028697;28;21592;-60
2022/06/23 03:36:01;;;;;;;10.23;5.10;;;;;;;15.18;95.25;93725.47;5022379;28;20052;-60
2022/06/23 03:41:38;;;;;;;9.05;4.53;;;;;;;15.17;94.56;93730.22;5036407;28;20048;-60
2022/06/23 03:44:09;;;;;;;7.93;4.47;;;;;;;15.27;94.63;93731.06;5051407;28;20047;-60
2022/06/23 03:47:02;;;;;;;10.57;5.30;;;;;;;15.39;94.18;93732.19;5050903;28;20084;-60
2022/06/23 03:49:51;;;;;;;9.68;5.80;;;;;;;15.29;94.21;93725.84;5026941;28;20068;-60
2022/06/23 03:52:41;;;;;;;10.80;5.70;;;;;;;15.33;94.54;93734.78;5050401;28;20091;-59
2022/06/23 03:55:17;;;;;;;10.02;5.70;;;;;;;15.42;93.92;93736.84;5050995;28;20478;-59
2022/06/23 03:57:53;;;;;;;10.50;5.70;;;;;;;15.45;93.71;93735.16;5030318;28;20150;-59
2022/06/23 04:00:22;;;;;;;10.38;5.28;;;;;;;15.47;93.37;93739.00;5026263;28;20087;-59
2022/06/23 04:03:01;;;;;;;10.95;4.90;;;;;;;15.54;93.40;93743.53;5017974;28;20061;-58
2022/06/23 04:05:49;;;;;;;11.80;4.90;;;;;;;15.44;93.02;93750.22;5020949;28;20087;-59
2022/06/23 04:08:16;;;;;;;9.00;5.07;;;;;;;15.42;92.70;93752.66;5047372;28;20041;-58
2022/06/23 04:10:45;;;;;;;8.87;4.57;;;;;;;15.49;92.39;93747.66;5036899;28;20444;-59
2022/06/23 04:13:23;;;;;;;7.75;4.50;;;;;;;15.56;91.98;93749.38;5049551;28;20048;-59
2022/06/23 04:15:52;;;;;;;7.97;4.82;;;;;;;15.90;90.73;93747.75;5029593;28;20045;-58
2022/06/23 04:18:25;;;;;;;8.52;4.40;;;;;;;15.94;89.66;93751.91;5021249;28;20493;-59
2022/06/23 04:20:59;;;;;;;8.07;4.40;;;;;;;16.08;89.10;93747.81;5020004;28;20037;-58
2022/06/23 04:23:34;;;;;;;9.73;4.93;;;;;;;16.29;87.43;93745.41;5030144;28;20041;-58
2022/06/23 04:26:05;;;;;;;9.27;5.03;;;;;;;16.27;87.68;93753.41;5030012;28;20136;-59
2022/06/23 04:28:41;;;;;;;10.90;5.80;;;;;;;16.26;87.46;93755.41;5030042;28;20041;-58
2022/06/23 04:31:08;;;;;;;8.93;4.43;;;;;;;16.62;86.40;93758.72;5023564;28;20045;-59
2022/06/23 04:33:41;;;;;;;9.38;5.05;;;;;;;17.17;84.14;93751.28;5017284;28;20045;-59
2022/06/23 04:36:28;;;;;;;8.07;4.70;;;;;;;18.49;78.48;93746.50;5024604;28;20478;-59
2022/06/23 04:39:05;;;;;;;8.32;4.80;;;;;;;18.73;75.74;93743.72;5029178;28;21522;-59
2022/06/23 04:41:46;;;;;;;7.68;4.53;;;;;;;18.70;75.57;93739.09;5029631;28;20052;-59
2022/06/23 04:44:20;;;;;;;9.68;4.65;;;;;;;18.64;76.06;93748.56;5029586;28;20045;-59
2022/06/23 04:46:52;;;;;;;6.40;4.30;;;;;;;18.49;75.92;93749.28;5029533;28;20060;-59
2022/06/23 04:49:29;;;;;;;6.73;3.90;;;;;;;18.01;77.45;93751.94;5029622;28;20050;-59
2022/06/23 04:51:55;;;;;;;8.32;4.18;;;;;;;17.90;77.96;93763.53;5030139;28;20052;-59
2022/06/23 04:54:32;;;;;;;7.00;3.80;;;;;;;17.49;78.46;93765.75;5028399;28;20120;-59
2022/06/23 04:57:10;;;;;;;6.40;3.30;;;;;;;16.94;80.35;93772.06;5029792;28;20041;-59
2022/06/23 04:59:47;;;;;;;6.97;3.60;;;;;;;16.82;81.81;93764.66;5029216;28;20541;-59
2022/06/23 05:02:32;;;;;;;6.10;3.63;;;;;;;17.02;81.94;93755.88;5010698;28;20048;-59
2022/06/23 05:05:07;;;;;;;8.73;4.00;;;;;;;16.89;81.81;93747.72;5007538;28;20046;-59
2022/06/23 05:07:41;;;;;;;9.43;4.50;;;;;;;16.91;81.99;93744.50;5007851;28;20048;-59
2022/06/23 05:10:25;;;;;;;8.02;4.10;;;;;;;18.46;76.76;93747.41;5020943;28;20043;-59
2022/06/23 05:12:59;;;;;;;6.90;4.03;;;;;;;18.70;74.31;93757.81;5026936;28;20397;-60
2022/06/23 05:15:32;;;;;;;7.80;4.37;;;;;;;18.17;76.47;93762.69;5049365;28;20040;-59
2022/06/23 05:18:08;;;;;;;7.22;4.32;;;;;;;17.25;80.17;93775.94;5049796;28;20040;-55
2022/06/23 05:20:49;;;;;;;7.80;4.82;;;;;;;17.04;81.38;93775.59;5049080;28;20387;-50
2022/06/23 05:23:21;;;;;;;9.00;5.15;;;;;;;16.77;83.51;93782.63;5031592;28;20429;-53
2022/06/23 05:25:53;;;;;;;8.38;5.07;;;;;;;17.48;81.25;93780.06;5048719;28;20045;-49
2022/06/23 05:28:25;;;;;;;7.97;4.80;;;;;;;17.58;79.48;93784.38;5048240;28;20518;-49
2022/06/23 05:31:06;;;;;;;10.50;5.10;;;;;;;17.49;80.13;93782.38;5021840;28;20437;-52
2022/06/23 05:33:36;;;;;;;11.30;5.28;;;;;;;17.80;78.86;93775.88;5040810;28;20041;-51
2022/06/23 05:36:12;;;;;;;11.10;6.07;;;;;;;18.98;75.22;93783.44;5048139;28;20036;-56
2022/06/23 05:38:53;;;;;;;10.75;5.65;;;;;;;19.76;71.92;93777.91;5048184;28;20877;-56
2022/06/23 05:41:34;;;;;;;9.33;5.47;;;;;;;21.66;65.68;93778.38;5048752;28;20107;-55
2022/06/23 05:44:09;;;;;;;7.80;5.50;;;;;;;23.71;58.24;93774.47;5049214;28;20056;-54
2022/06/23 05:46:40;;;;;;;8.60;5.20;;;;;;;25.45;53.00;93777.75;5048798;28;20327;-56
2022/06/23 05:49:19;;;;;;;8.85;4.97;;;;;;;27.09;47.57;93781.00;5049327;28;20049;-56
2022/06/23 05:51:59;;;;;;;16.90;5.72;;;;;;;26.53;47.29;93780.75;5028375;28;21557;-55
2022/06/23 05:54:40;;;;;;;6.80;4.60;;;;;;;26.99;46.97;93779.84;5028847;28;20044;-57
2022/06/23 05:57:18;;;;;;;7.13;4.95;;;;;;;26.69;46.03;93777.06;5029276;28;20057;-57
2022/06/23 06:00:04;;;;;;;5.90;4.50;;;;;;;28.04;44.58;93769.16;5031158;28;20053;-56
2022/06/23 06:02:56;;;;;;;6.95;4.20;;;;;;;26.14;47.70;93776.16;5019770;28;20504;-58
2022/06/23 06:05:38;;;;;;;9.80;4.38;;;;;;;25.17;50.29;93760.97;5022515;28;20328;-55
2022/06/23 06:08:13;;;;;;;6.43;4.00;;;;;;;23.64;54.54;93765.78;5048500;28;20059;-56
2022/06/23 06:10:40;;;;;;;6.78;3.63;;;;;;;23.69;54.68;93765.03;5025003;28;20650;-56
2022/06/23 06:13:14;;;;;;;7.13;4.13;;;;;;;23.70;54.87;93767.34;5032807;28;20401;-53
2022/06/23 06:15:46;;;;;;;7.22;3.83;;;;;;;23.39;54.94;93778.69;5027640;28;20053;-55
2022/06/23 06:18:23;;;;;;;6.65;4.30;;;;;;;23.52;56.35;93778.97;5023486;28;20042;-54
2022/06/23 06:20:54;;;;;;;7.67;4.07;;;;;;;25.88;49.31;93774.50;5021800;28;20046;-56
2022/06/23 06:23:45;;;;;;;6.57;3.53;;;;;;;26.44;47.47;93781.81;5032578;28;20079;-57
2022/06/23 06:26:15;;;;;;;7.80;4.13;;;;;;;25.57;49.16;93776.44;5031804;28;21795;-53
2022/06/23 06:28:42;;;;;;;7.82;3.72;;;;;;;25.03;50.65;93765.63;5032806;28;20037;-54
2022/06/23 06:31:24;;;;;;;7.18;3.70;;;;;;;27.17;46.20;93781.19;5032788;28;20049;-57
2022/06/23 06:33:57;;;;;;;7.10;3.87;;;;;;;26.63;46.59;93779.16;5026868;28;20814;-55
2022/06/23 06:36:48;;;;;;;8.88;3.80;;;;;;;25.43;48.46;93778.28;5018420;28;20046;-57
2022/06/23 06:39:28;;;;;;;7.65;3.70;;;;;;;23.53;54.65;93780.53;5032289;28;20046;-55
2022/06/23 06:42:05;;;;;;;7.35;4.32;;;;;;;24.02;54.77;93780.41;5032858;28;20044;-56
2022/06/23 06:44:34;;;;;;;8.75;4.32;;;;;;;24.74;52.32;93783.78;5032131;28;20046;-55
2022/06/23 06:47:01;;;;;;;7.93;4.33;;;;;;;25.67;49.10;93771.28;5032447;28;20109;-57
2022/06/23 06:49:29;;;;;;;8.15;3.72;;;;;;;29.83;41.57;93767.38;5031741;28;20049;-57
2022/06/23 06:51:57;;;;;;;6.88;3.35;;;;;;;30.22;39.21;93768.59;5032296;28;20052;-57
2022/06/23 06:54:33;;;;;;;6.38;3.03;;;;;;;29.20;40.79;93775.53;5029670;28;20506;-57
2022/06/23 06:57:09;;;;;;;5.88;2.60;;;;;;;30.36;38.78;93772.16;5029504;28;20453;-58
2022/06/23 07:00:09;;;;;;;6.70;3.10;;;;;;;29.24;40.81;93770.34;5010243;28;20071;-60
2022/06/23 07:03:03;;;;;;;4.45;2.53;;;;;;;30.24;38.25;93768.03;5009200;28;20664;-56
2022/06/23 07:05:42;;;;;;;6.18;2.63;;;;;;;32.29;34.88;93768.59;5022167;28;20045;-58
2022/06/23 07:08:15;;;;;;;7.03;3.20;;;;;;;30.11;38.35;93762.44;5048100;28;20048;-56
2022/06/23 07:10:44;;;;;;;6.32;2.92;;;;;;;30.88;37.93;93766.81;5025242;28;21666;-56
2022/06/23 07:13:18;;;;;;;7.83;2.77;;;;;;;32.23;35.51;93765.94;5030761;28;20056;-57
2022/06/23 07:15:53;;;;;;;6.20;2.60;;;;;;;30.25;37.73;93767.50;5050923;28;20490;-56
2022/06/23 07:18:29;;;;;;;5.95;2.80;;;;;;;30.62;37.92;93756.34;5040979;28;20079;-56
2022/06/23 07:21:17;;;;;;;7.13;3.00;;;;;;;31.38;36.02;93756.22;5046917;28;20044;-57
2022/06/23 07:23:56;;;;;;;7.35;2.92;;;;;;;31.40;36.41;93756.41;5030923;28;20052;-57
2022/06/23 07:26:32;;;;;;;5.37;2.57;;;;;;;32.01;35.06;93753.19;5030804;28;20041;-57
2022/06/23 07:29:12;;;;;;;6.53;2.72;;;;;;;33.13;33.45;93745.25;5031751;28;20167;-57
2022/06/23 07:31:48;;;;;;;6.15;2.30;;;;;;;32.42;34.45;93744.97;5050337;28;21465;-56
2022/06/23 07:34:19;;;;;;;6.45;2.50;;;;;;;32.39;34.10;93741.16;5045417;28;20045;-58
2022/06/23 07:36:52;;;;;;;7.43;2.47;;;;;;;33.86;31.96;93732.59;5039253;28;20395;-57
2022/06/23 07:39:22;;;;;;;8.43;2.63;;;;;;;34.20;31.49;93730.00;5051039;28;20486;-57
2022/06/23 07:42:10;;;;;;;7.70;2.65;;;;;;;34.64;30.50;93734.50;5042768;28;20064;-57
2022/06/23 07:44:43;;;;;;;6.93;2.60;;;;;;;32.98;32.62;93731.00;5044748;28;20071;-57
2022/06/23 07:47:10;;;;;;;4.82;2.20;;;;;;;32.93;32.93;93731.97;5051452;28;20043;-56
2022/06/23 07:49:37;;;;;;;6.22;2.22;;;;;;;34.08;31.77;93731.00;5050802;28;20049;-56
2022/06/23 07:52:04;;;;;;;8.43;2.37;;;;;;;34.89;30.71;93725.97;5051067;28;20051;-57
2022/06/23 07:54:35;;;;;;;7.28;2.35;;;;;;;33.02;33.11;93726.47;5050832;28;20490;-57
2022/06/23 07:57:03;;;;;;;6.60;2.67;;;;;;;34.18;31.56;93718.44;5050799;28;20049;-57
2022/06/23 07:59:40;;;;;;;5.88;2.60;;;;;;;33.73;32.70;93720.13;5050633;28;20570;-57
2022/06/23 08:02:17;;;;;;;6.40;2.75;;;;;;;33.04;33.49;93720.22;5050934;28;20057;-57
2022/06/23 08:05:09;;;;;;;6.97;2.70;;;;;;;35.32;30.23;93714.63;5024979;28;20543;-57
2022/06/23 08:07:37;;;;;;;5.07;2.42;;;;;;;34.29;31.76;93702.22;5024041;28;20056;-57
2022/06/23 08:10:09;;;;;;;9.07;2.92;;;;;;;34.88;30.24;93710.22;5016874;28;20062;-57
2022/06/23 08:12:53;;;;;;;7.43;2.90;;;;;;;34.18;30.73;93704.19;5029136;28;20041;-57
2022/06/23 08:18:33;;;;;;;9.03;2.47;;;;;;;34.14;31.73;93703.84;5030241;28;20559;-57
2022/06/23 08:21:22;;;;;;;9.93;2.80;;;;;;;33.61;31.51;93699.09;5030154;28;20038;-56
2022/06/23 08:24:00;;;;;;;9.48;3.03;;;;;;;31.78;35.25;93701.25;5023108;28;20045;-56
2022/06/23 08:26:28;;;;;;;11.07;2.92;;;;;;;31.05;35.79;93698.38;5019835;28;20069;-56
2022/06/23 08:29:00;;;;;;;10.05;2.65;;;;;;;32.56;33.97;93697.28;5028384;28;20051;-56
2022/06/23 08:31:29;;;;;;;11.00;2.90;;;;;;;31.80;35.41;93692.91;5024040;28;20498;-57
2022/06/23 08:34:15;;;;;;;11.75;3.30;;;;;;;32.52;34.42;93689.13;5015786;28;20089;-57
2022/06/23 08:36:48;;;;;;;9.38;2.78;;;;;;;32.24;34.48;93682.28;5030286;28;20075;-56
2022/06/23 08:39:29;;;;;;;9.50;2.60;;;;;;;34.22;31.43;93681.00;5028481;28;20409;-56
2022/06/23 08:42:25;;;;;;;10.35;2.63;;;;;;;33.21;32.95;93669.22;5022050;28;20127;-57
2022/06/23 08:44:58;;;;;;;10.10;2.90;;;;;;;32.59;33.88;93671.34;4999885;28;21559;-57
2022/06/23 08:47:43;;;;;;;10.52;2.70;;;;;;;34.41;30.05;93663.44;5031547;28;20049;-57
2022/06/23 08:50:09;;;;;;;12.63;2.80;;;;;;;35.80;28.24;93671.47;5029995;28;20045;-57
2022/06/23 08:52:43;;;;;;;11.38;2.55;;;;;;;34.92;30.20;93662.09;5029726;28;20053;-57
2022/06/23 08:55:21;;;;;;;11.07;2.60;;;;;;;31.96;34.52;93662.50;5029856;28;20045;-56
2022/06/23 08:58:38;;;;;;;9.73;2.50;;;;;;;32.73;33.29;93663.38;5028168;28;20372;-56
2022/06/23 09:01:20;;;;;;;11.30;2.60;;;;;;;33.73;31.44;93654.69;5017521;28;21070;-56
2022/06/23 09:04:11;;;;;;;8.40;2.30;;;;;;;30.85;37.18;93665.91;5021590;28;20049;-56
2022/06/23 09:06:47;;;;;;;8.93;2.55;;;;;;;28.33;41.89;93662.25;5048754;28;20544;-56
2022/06/23 09:09:26;;;;;;;12.13;2.80;;;;;;;29.28;40.73;93659.78;5049453;28;20075;-56
2022/06/23 09:12:12;;;;;;;9.07;2.90;;;;;;;33.11;32.96;93656.94;5050015;28;20082;-56
2022/06/23 09:14:45;;;;;;;13.45;2.88;;;;;;;33.29;32.72;93657.84;5013707;28;20950;-57
2022/06/23 09:17:50;;;;;;;11.75;2.50;;;;;;;36.28;29.20;93668.22;5029954;28;20045;-57
2022/06/23 09:20:31;;;;;;;11.48;2.60;;;;;;;35.49;30.23;93662.50;4955317;28;20058;-57
2022/06/23 09:23:19;;;;;;;9.77;2.50;;;;;;;33.58;32.03;93660.38;5028774;28;20042;-57
2022/06/23 09:26:01;;;;;;;8.97;2.77;;;;;;;33.27;33.49;93649.13;5026986;28;20053;-56
2022/06/23 09:28:55;;;;;;;10.35;2.65;;;;;;;30.22;37.84;93655.38;5032888;28;20041;-55
2022/06/23 09:31:39;;;;;;;12.90;2.90;;;;;;;29.16;40.49;93656.44;5029288;28;20049;-56
2022/06/23 09:34:12;;;;;;;12.23;3.00;;;;;;;29.49;40.18;93654.19;5040837;28;20057;-57
2022/06/23 09:37:32;;;;;;;10.38;2.88;;;;;;;30.47;38.64;93646.56;5053424;28;20572;-57
2022/06/23 09:40:29;;;;;;;11.00;2.60;;;;;;;32.42;35.57;93639.91;4973849;28;20708;-56
2022/06/23 09:43:02;;;;;;;11.43;2.75;;;;;;;31.04;37.07;93640.91;4924093;29;20733;-57
2022/06/23 09:45:38;;;;;;;13.48;2.70;;;;;;;30.45;38.02;93637.84;4999400;28;20053;-56
2022/06/23 09:48:07;;;;;;;10.65;2.78;;;;;;;30.39;37.85;93634.41;5041193;28;20046;-55
2022/06/23 09:50:59;;;;;;;11.90;2.78;;;;;;;28.51;40.43;93629.66;5055601;28;20131;-56
2022/06/23 09:54:00;;;;;;;11.67;2.60;;;;;;;31.35;35.76;93626.13;5055675;28;20041;-57
2022/06/23 09:56:33;;;;;;;11.80;2.90;;;;;;;30.66;36.49;93627.22;5055629;28;20066;-57
2022/06/23 09:59:17;;;;;;;9.73;2.55;;;;;;;30.92;36.94;93625.53;5038902;28;20046;-56
2022/06/23 10:01:46;;;;;;;10.43;2.78;;;;;;;28.65;41.12;93623.50;5029851;28;20049;-58
2022/06/23 10:04:16;;;;;;;13.52;3.05;;;;;;;25.59;47.85;93627.00;5028308;28;20047;-58
2022/06/23 10:07:07;;;;;;;11.80;2.80;;;;;;;27.70;44.14;93614.53;5055888;28;20045;-58
2022/06/23 10:10:03;;;;;;;12.95;2.78;;;;;;;30.49;37.46;93620.53;5028262;28;20043;-56
2022/06/23 10:12:43;;;;;;;13.07;2.90;;;;;;;29.17;40.26;93617.63;5053501;28;20053;-56
2022/06/23 10:15:45;;;;;;;10.70;2.55;;;;;;;30.85;35.62;93621.34;5056376;28;20044;-58
2022/06/23 10:18:24;;;;;;;14.43;2.85;;;;;;;33.30;31.49;93607.41;5012648;28;20053;-58
2022/06/23 10:20:56;;;;;;;10.90;2.80;;;;;;;32.31;33.08;93618.28;5032347;28;20041;-57
2022/06/23 10:23:23;;;;;;;11.50;2.70;;;;;;;32.21;33.66;93608.81;5035538;28;20041;-59
2022/06/23 10:26:08;;;;;;;13.48;2.65;;;;;;;33.91;30.64;93610.00;5035171;28;20042;-57
2022/06/23 10:28:41;;;;;;;13.75;2.30;;;;;;;34.35;29.87;93606.69;5035255;28;20045;-57
2022/06/23 10:31:42;;;;;;;10.40;2.20;;;;;;;35.10;28.26;93602.22;5035637;28;20517;-59
2022/06/23 10:34:31;;;;;;;13.10;2.60;;;;;;;30.69;34.67;93607.59;5021640;28;20062;-57
2022/06/23 10:36:58;;;;;;;10.27;2.38;;;;;;;32.75;32.12;93603.91;5017651;28;21487;-57
2022/06/23 10:39:46;;;;;;;11.02;2.22;;;;;;;34.14;29.79;93586.31;5048041;28;20049;-57
2022/06/23 10:42:50;;;;;;;11.55;2.50;;;;;;;34.78;28.82;93584.66;5027362;28;20037;-54
2022/06/23 10:45:35;;;;;;;12.80;2.78;;;;;;;33.02;31.40;93572.97;5052133;28;20053;-55
2022/06/23 10:48:28;;;;;;;13.13;2.50;;;;;;;32.18;33.16;93578.75;5052779;28;20052;-58
2022/06/23 10:51:06;;;;;;;12.82;2.92;;;;;;;30.43;36.33;93584.59;5049535;28;21525;-56
2022/06/23 10:54:07;;;;;;;14.50;2.70;;;;;;;28.84;38.24;93580.25;5051900;28;20053;-55
2022/06/23 10:57:18;;;;;;;11.50;2.47;;;;;;;30.48;35.37;93574.44;5030558;28;20049;-58
2022/06/23 10:59:59;;;;;;;13.10;2.45;;;;;;;31.09;34.96;93573.28;5026890;28;21594;-57
2022/06/23 11:02:35;;;;;;;15.20;2.57;;;;;;;30.67;33.62;93566.44;5032137;28;20041;-57
2022/06/23 11:05:02;;;;;;;13.50;2.38;;;;;;;31.25;33.73;93564.31;5019735;28;20046;-55
2022/06/23 11:08:10;;;;;;;12.10;2.30;;;;;;;30.73;35.42;93562.72;5031860;28;20049;-56
2022/06/23 11:11:02;;;;;;;10.55;2.47;;;;;;;29.20;36.54;93560.03;5010285;28;20068;-56
2022/06/23 11:13:59;;;;;;;9.38;2.00;;;;;;;29.63;35.61;93564.44;5008090;28;20052;-55
2022/06/23 11:16:41;;;;;;;9.10;2.13;;;;;;;28.42;37.77;93572.28;5031630;28;20156;-54
2022/06/23 11:19:20;;;;;;;10.82;2.50;;;;;;;28.49;37.43;93565.25;5031772;28;20046;-57
2022/06/23 11:22:14;;;;;;;12.02;2.30;;;;;;;29.40;36.79;93562.13;5030924;28;20675;-57
2022/06/23 11:24:59;;;;;;;13.00;2.20;;;;;;;29.24;37.33;93564.03;5030985;28;20053;-54
2022/06/23 11:27:44;;;;;;;11.50;2.53;;;;;;;28.10;38.82;93569.56;5031085;28;20042;-55
2022/06/23 11:30:20;;;;;;;9.83;2.17;;;;;;;29.14;36.27;93562.19;5022962;28;20049;-56
2022/06/23 11:33:14;;;;;;;10.52;2.08;;;;;;;29.72;34.94;93564.00;5018863;28;20631;-55
2022/06/23 11:35:51;;;;;;;11.77;2.35;;;;;;;27.89;37.34;93552.50;5022260;28;20068;-56
2022/06/23 11:38:30;;;;;;;10.50;2.42;;;;;;;28.85;36.54;93545.03;5030954;28;20048;-55
2022/06/23 11:41:21;;;;;;;11.30;2.42;;;;;;;29.54;36.32;93547.94;5031175;28;20046;-57
2022/06/23 11:44:10;;;;;;;12.43;2.57;;;;;;;28.19;39.79;93545.78;5050847;28;21503;-55
2022/06/23 11:46:48;;;;;;;10.25;2.47;;;;;;;27.55;40.81;93535.31;5051079;28;20113;-56
2022/06/23 11:49:30;;;;;;;12.05;2.42;;;;;;;28.26;38.20;93528.97;5051018;28;20045;-56
2022/06/23 11:52:21;;;;;;;12.07;2.50;;;;;;;28.72;37.84;93519.66;5051123;28;20048;-57
2022/06/23 11:55:21;;;;;;;10.32;2.22;;;;;;;27.95;38.39;93521.34;5023447;28;20642;-57
2022/06/23 11:58:19;;;;;;;12.97;2.33;;;;;;;28.24;39.04;93519.53;5016513;28;20155;-57
2022/06/23 12:01:07;;;;;;;13.13;2.50;;;;;;;27.46;39.19;93511.88;5014659;28;20875;-53
2022/06/23 12:03:49;;;;;;;8.68;2.50;;;;;;;28.13;38.49;93506.41;5020775;28;20041;-57
2022/06/23 12:06:37;;;;;;;9.25;1.88;;;;;;;29.23;36.35;93505.97;5016965;28;20043;-57
2022/06/23 12:09:04;;;;;;;10.95;2.38;;;;;;;28.66;36.79;93509.25;5031076;28;20045;-55
2022/06/23 12:11:32;;;;;;;11.73;2.23;;;;;;;29.03;36.45;93506.66;5027427;28;20398;-55
2022/06/23 12:14:01;;;;;;;8.38;2.20;;;;;;;29.38;36.23;93499.72;5028321;28;20053;-53
2022/06/23 12:16:30;;;;;;;9.00;2.05;;;;;;;29.81;33.40;93500.53;5028687;28;20667;-57
2022/06/23 12:19:03;;;;;;;10.30;2.30;;;;;;;29.97;34.20;93496.50;5030711;28;20052;-57
2022/06/23 12:21:44;;;;;;;9.77;2.35;;;;;;;30.06;33.84;93492.41;5030477;28;20073;-55
2022/06/23 12:24:19;;;;;;;10.40;2.23;;;;;;;30.13;34.49;93496.63;5030682;28;20037;-58
2022/06/23 12:26:57;;;;;;;11.00;2.20;;;;;;;29.91;34.58;93492.31;5029130;28;20515;-58
2022/06/23 12:29:44;;;;;;;10.63;2.20;;;;;;;28.77;36.12;93477.16;5022024;28;20048;-55
2022/06/23 12:33:00;;;;;;;9.60;2.20;;;;;;;28.59;36.76;93478.06;5019214;28;20688;-55
2022/06/23 12:35:37;;;;;;;9.80;2.20;;;;;;;28.33;37.67;93473.19;4984105;28;21561;-55